• Join FlightAware (Why Join?)
  • Login
  • US Flag 
03:06AM EST


 

Airport Tracker/Info


-or-


 

Live Flight TrackerFlight Track Log ✈ AAL1012 ✈ 13-Apr-2013 ✈ KMIA - KPHL

Flight Track Log - Related Links

Times and Time Zones

All times are in EDT time to prevent confusion due to time zone crossing. See the AAL1012 flight status page for this flight to view local times or setup timezone preferences in your user account.

Time Position Orientation Groundspeed Altitude Reporting Facility
EDT Latitude Longitude Course Direction KTS MPH feet Rate Location/Type
04:00PM 25.8006 -80.2606 343° North 183 211 800  Level Miami Center
04:01PM 25.7908 -80.2258 107° East 192 221 2,000 1,500 Climbing Miami Center
04:01PM 25.7672 -80.1697 115° Southeast 243 280 3,100 1,620 Climbing Miami Center
04:02PM 26.0067 -80.3617 336° Northwest  Level FlightAware Approximate
04:02PM 25.7247 -80.1086 128° Southeast 254 292 5,200  Level Miami Center
04:03PM 26.1173 -80.4069 340° North  Level FlightAware Approximate
04:03PM 25.6636 -80.1300 198° South 256 295 7,200  Level Miami Center
04:04PM 26.2290 -80.4485 343° North  Level FlightAware Approximate
04:04PM 25.6561 -80.1806 261° West 264 304 8,300  Level Miami Center
04:04PM 25.6494 -80.2058 254° West 259 298 9,200 2,400 Climbing Miami Center
04:05PM 26.3419 -80.4862 343° North  Level FlightAware Approximate
04:05PM 25.6481 -80.2633 268° West 274 315 10,700  Level Miami Center
04:06PM 25.6006 -80.3264 230° Southwest 279 321 13,400 3,000 Climbing Miami Center
04:07PM 25.5753 -80.3372 201° Southwest 285 328 14,600 2,100 Climbing Miami Center
04:07PM 25.5311 -80.3522 197° South 293 337 15,500 720 Climbing Miami Center
04:08PM 25.4444 -80.3886 201° Southwest 333 383 15,900 720 Climbing Miami Center
04:09PM 25.3622 -80.4256 202° Southwest 333 383 17,000 1,800 Climbing Miami Center
04:10PM 25.2736 -80.4594 199° South 338 389 19,500 1,440 Climbing Miami Center
04:11PM 25.1869 -80.4961 201° Southwest 338 389 19,900 180 Climbing Miami Center
04:12PM 25.0986 -80.5300 199° South 333 383 19,900 300 Level Miami Center
04:13PM 25.0136 -80.5781 207° Southwest 328 377 20,600 1,260 Climbing Miami Center
04:14PM 25.0217 -80.6744 275° West 257 296 22,500 1,800 Climbing Miami Center
04:15PM 25.1192 -80.7075 343° North 224 258 24,200 1,800 Climbing Miami Center
04:16PM 25.2272 -80.7247 352° North 295 339 26,100 1,260 Climbing Miami Center
04:17PM 25.3394 -80.7442 351° North 352 405 26,800 780 Climbing Miami Center
04:18PM 25.4600 -80.7664 351° North 399 459 27,700 960 Climbing Miami Center
04:19PM 25.5869 -80.7889 351° North 439 505 28,800 1,380 Climbing Miami Center
04:20PM 25.7156 -80.8139 350° North 461 531 30,500 1,500 Climbing Miami Center
04:21PM 25.8425 -80.8367 351° North 466 536 31,900 1,380 Climbing Miami Center
04:22PM 25.9672 -80.8569 352° North 461 531 33,300 1,320 Climbing Miami Center
04:23PM 26.0900 -80.8772 352° North 461 531 34,600 780 Climbing Miami Center
04:24PM 26.2125 -80.9000 351° North 450 518 34,900 180 Climbing Miami Center
04:25PM 26.3164 -80.9219 349° North 425 489 35,000  Climbing Miami Center
04:26PM 26.4492 -80.9450 351° North 430 495 35,000  Level Miami Center
04:27PM 26.5575 -80.9628 352° North 436 502 35,000  Level Miami Center
04:28PM 26.6925 -80.9883 350° North 441 507 35,000  Level Miami Center
04:29PM 26.8106 -81.0136 349° North 436 502 35,000  Level Miami Center
04:30PM 26.9333 -81.0364 351° North 436 502 35,000  Level Miami Center
04:31PM 27.0536 -81.0572 351° North 436 502 35,000  Level Miami Center
04:32PM 27.1494 -81.0675 355° North 436 502 35,000 -60 Level Miami Center
04:33PM 27.2867 -81.0842 354° North 441 507 34,900  Descending Miami Center
04:34PM 27.4178 -81.1056 352° North 441 507 35,000  Climbing Miami Center
04:35PM 27.5403 -81.1217 353° North 441 507 35,000 -60 Level Miami Center
04:36PM 27.6631 -81.1381 353° North 441 507 34,900  Descending Miami Center
04:37PM 27.7836 -81.1567 352° North 441 507 35,000  Climbing Miami Center
04:38PM 27.9064 -81.1683 355° North 446 513 35,000  Level Miami Center
04:39PM 28.0267 -81.1869 352° North 441 507 35,000  Level Miami Center
04:40PM 28.1494 -81.2033 353° North 441 507 35,000  Level Miami Center
04:41PM 28.2594 -81.2169 354° North 441 507 35,000 -60 Level Miami Center
04:42PM 28.3967 -81.2342 354° North 448 516 34,900  Descending Miami Center
04:43PM 28.5192 -81.2531 352° North 448 516 35,000  Climbing Miami Center
04:44PM 28.6169 -81.2642 354° North 448 516 35,000  Level Miami Center
04:45PM 28.7450 -81.2872 351° North 441 507 35,000  Level Jacksonville Center
04:46PM 28.8683 -81.3042 353° North 455 524 35,000  Level Jacksonville Center
04:47PM 28.9961 -81.3233 353° North 460 529 35,000 -60 Level Jacksonville Center
04:48PM 29.1236 -81.3403 353° North 460 529 34,900 -60 Descending Jacksonville Center
04:49PM 29.2489 -81.3575 353° North 460 529 34,900  Level Jacksonville Center
04:50PM 29.3764 -81.3744 353° North 465 535 35,000  Climbing Jacksonville Center
04:51PM 29.5019 -81.3942 352° North 465 535 35,000  Level Jacksonville Center
04:52PM 29.6314 -81.3992 358° North 460 529 35,000 300 Level Jacksonville Center
04:53PM 29.7589 -81.3997 360° North 460 529 35,700 900 Climbing Jacksonville Center
04:54PM 29.8861 -81.4025 359° North 460 529 36,800 600 Climbing Jacksonville Center
04:55PM 30.0261 -81.4053 359° North 460 529 37,000 60 Climbing Jacksonville Center
04:56PM 30.1514 -81.4081 359° North 460 529 37,000  Level Jacksonville Center
04:57PM 30.2789 -81.4108 359° North 460 529 37,000  Level Jacksonville Center
04:58PM 30.4061 -81.4136 359° North 460 529 37,000  Level Jacksonville Center
04:59PM 30.5336 -81.4189 358° North 460 529 37,000  Level Jacksonville Center
05:00PM 30.6611 -81.4219 359° North 460 529 37,000  Level Jacksonville Center
05:01PM 30.7906 -81.4247 359° North 460 529 37,000  Level Jacksonville Center
05:02PM 30.9178 -81.4275 359° North 460 529 37,000  Level Jacksonville Center
05:03PM 31.0472 -81.4303 359° North 460 529 37,000  Level Jacksonville Center
05:05PM 31.2049 -81.3281 33° Northeast  Level FlightAware Approximate
05:05PM 31.2967 -81.3364 33° Northeast 468 539 37,000  Level Jacksonville Center
05:06PM 31.3981 -81.2497 36° Northeast 488 562 37,000  Level Jacksonville Center
05:07PM 31.5239 -81.1475 35° Northeast 493 567 37,000  Level Jacksonville Center
05:08PM 31.6294 -81.0675 33° Northeast 498 573 37,000  Level Jacksonville Center
05:09PM 31.7531 -80.9672 35° Northeast 498 573 37,000  Level Jacksonville Center
05:10PM 31.8667 -80.8769 34° Northeast 498 573 37,000  Level Jacksonville Center
05:11PM 31.9819 -80.7839 34° Northeast 498 573 37,000  Level Jacksonville Center
05:12PM 32.0953 -80.6928 34° Northeast 498 573 37,000  Level Jacksonville Center
05:13PM 32.2083 -80.5992 35° Northeast 493 567 37,000  Level Jacksonville Center
05:14PM 32.3236 -80.5081 34° Northeast 504 580 37,000  Level Jacksonville Center
05:15PM 32.4408 -80.4114 35° Northeast 504 580 37,000  Level Jacksonville Center
05:16PM 32.5558 -80.3169 35° Northeast 504 580 37,000  Level Jacksonville Center
05:17PM 32.6728 -80.2200 35° Northeast 504 580 37,000  Level Jacksonville Center
05:18PM 32.7856 -80.1250 35° Northeast 504 580 37,000  Level Jacksonville Center
05:19PM 32.8900 -80.0353 36° Northeast 504 580 37,000 -60 Level Jacksonville Center
05:20PM 33.0022 -79.9303 38° Northeast 504 580 36,900 -60 Descending Jacksonville Center
05:21PM 33.1125 -79.8250 39° Northeast 510 587 36,900  Level Jacksonville Center
05:22PM 33.2206 -79.7219 39° Northeast 503 579 37,000  Climbing Jacksonville Center
05:23PM 33.3306 -79.6161 39° Northeast 503 579 37,000  Level Jacksonville Center
05:24PM 33.4383 -79.5100 39° Northeast 508 585 37,000 -240 Level Jacksonville Center
05:25PM 33.5461 -79.4036 39° Northeast 508 585 36,600 -720 Descending Jacksonville Center
05:26PM 33.6536 -79.2972 39° Northeast 508 585 35,600 -840 Descending Jacksonville Center
05:27PM 33.7592 -79.1956 39° Northeast 501 577 35,000 -360 Descending Jacksonville Center
05:28PM 33.8728 -79.0831 39° Northeast 509 586 34,900  Descending Jacksonville Center
05:29PM 33.9822 -78.9733 40° Northeast 509 586 35,000 -480 Climbing Jacksonville Center
05:31PM 34.1644 -78.7944 39° Northeast 547 629 33,700 -840 Descending Washington Center
05:32PM 34.2781 -78.6833 39° Northeast 510 587 33,000 -360 Descending Washington Center
05:33PM 34.3892 -78.5717 40° Northeast 503 579 33,000 -60 Level Washington Center
05:34PM 34.5028 -78.4572 40° Northeast 515 593 32,900 -60 Descending Washington Center
05:35PM 34.6117 -78.3425 41° Northeast 510 587 32,900  Level Washington Center
05:36PM 34.7247 -78.2303 39° Northeast 522 601 33,000  Climbing Washington Center
05:37PM 34.8231 -78.1219 42° Northeast 528 608 33,000  Level Washington Center
05:38PM 34.9342 -78.0064 40° Northeast 528 608 33,000  Level Washington Center
05:39PM 35.0511 -77.8881 40° Northeast 528 608 33,000  Level Washington Center
05:40PM 35.1639 -77.7719 40° Northeast 534 615 33,000 -300 Level Washington Center
05:41PM 35.2767 -77.6556 40° Northeast 534 615 32,400 -720 Descending Washington Center
05:42PM 35.3911 -77.5411 39° Northeast 534 615 31,600 -720 Descending Washington Center
05:43PM 35.5075 -77.4369 36° Northeast 523 602 31,000 -300 Descending Washington Center
05:44PM 35.6258 -77.3372 34° Northeast 517 595 31,000  Level Washington Center
05:45PM 35.7442 -77.2325 36° Northeast 517 595 31,000  Level Washington Center
05:46PM 35.8711 -77.1147 37° Northeast 518 596 31,000  Level Washington Center
05:47PM 35.9911 -77.0092 35° Northeast 518 596 31,000 -60 Level Washington Center
05:48PM 36.1092 -76.9058 35° Northeast 518 596 30,900  Descending Washington Center
05:49PM 36.2314 -76.7997 35° Northeast 524 603 31,000  Climbing Washington Center
05:50PM 36.3514 -76.6931 36° Northeast 524 603 30,900 -60 Descending Washington Center
05:51PM 36.4711 -76.5864 36° Northeast 524 603 30,900 -300 Level Washington Center
05:52PM 36.5908 -76.4767 36° Northeast 524 603 30,300 -840 Descending Washington Center
05:53PM 36.7083 -76.3717 36° Northeast 524 603 29,300 -660 Descending Washington Center
05:54PM 36.8217 -76.2614 38° Northeast 524 603 29,000 -180 Descending Washington Center
05:55PM 36.9453 -76.1689 31° Northeast 524 603 29,000  Level Washington Center
05:56PM 37.0811 -76.1047 21° North 512 589 29,000  Level Washington Center
05:57PM 37.2131 -76.0353 23° Northeast 507 583 29,000 -240 Level Washington Center
05:58PM 37.3278 -75.9731 23° Northeast 500 575 28,600 -720 Descending Washington Center
05:59PM 37.4575 -75.9031 23° Northeast 500 575 27,600 -960 Descending Washington Center
06:00PM 37.5847 -75.8278 25° Northeast 500 575 26,700 -960 Descending Washington Center
06:01PM 37.7081 -75.7308 32° Northeast 506 582 25,700 -1,020 Descending Washington Center
06:02PM 37.8289 -75.6417 30° Northeast 506 582 24,700 -1,020 Descending Washington Center
06:03PM 37.9458 -75.5575 30° Northeast 501 577 23,700 -1,080 Descending Washington Center
06:04PM 38.0606 -75.4678 32° Northeast 489 563 22,600 -1,080 Descending Washington Center
06:05PM 38.1792 -75.3911 27° Northeast 478 550 21,600 -1,020 Descending Washington Center
06:06PM 38.2936 -75.3167 27° Northeast 471 542 20,600 -1,080 Descending Washington Center
06:07PM 38.4167 -75.2419 25° Northeast 457 526 19,500 -1,500 Descending Washington Center
06:08PM 38.5269 -75.1669 28° Northeast 444 511 17,600 -2,100 Descending Washington Center
06:09PM 38.6350 -75.1000 26° Northeast 433 498 15,400 -1,320 Descending Washington Center
06:10PM 38.7369 -75.0408 24° Northeast 421 484 15,000 -360 Descending Washington Center
06:11PM 38.8453 -75.0319 North 390 449 14,700 -780 Descending Washington Center
06:12PM 38.9514 -75.0203 North 390 449 13,500 -1,260 Descending Washington Center
06:13PM 39.0536 -75.0117 North 384 442 12,200 -1,320 Descending Washington Center